createdAt,value
2018-09-04T00:01:43.256Z,21.77
2018-09-04T00:04:12.266Z,18.70
2018-09-04T00:06:41.464Z,20.30
2018-09-04T00:09:10.398Z,23.50
2018-09-04T00:11:39.311Z,20.63
2018-09-04T00:14:09.052Z,18.87
2018-09-04T00:16:37.713Z,18.00
2018-09-04T00:19:06.495Z,16.10
2018-09-04T00:21:35.446Z,21.07
2018-09-04T00:24:04.380Z,17.83
2018-09-04T00:26:33.419Z,19.87
2018-09-04T00:29:02.358Z,21.27
2018-09-04T00:31:31.378Z,20.47
2018-09-04T00:34:00.162Z,20.33
2018-09-04T00:36:29.263Z,18.67
2018-09-04T00:38:58.154Z,16.23
2018-09-04T00:41:27.259Z,20.70
2018-09-04T00:43:56.360Z,19.77
2018-09-04T00:46:24.977Z,18.97
2018-09-04T00:48:53.620Z,20.40
2018-09-04T00:51:22.691Z,20.80
2018-09-04T00:53:51.810Z,22.87
2018-09-04T00:56:20.574Z,20.83
2018-09-04T00:58:49.845Z,19.87
2018-09-04T01:01:18.866Z,27.03
2018-09-04T01:03:47.992Z,25.70
2018-09-04T01:06:16.814Z,22.20
2018-09-04T01:08:45.724Z,28.27
2018-09-04T01:11:14.607Z,23.67
2018-09-04T01:13:46.859Z,24.50
2018-09-04T01:16:16.943Z,22.40
2018-09-04T01:18:45.815Z,25.00
2018-09-04T01:21:14.525Z,29.40
2018-09-04T01:23:43.619Z,22.00
2018-09-04T01:26:13.318Z,28.07
2018-09-04T01:28:42.555Z,31.37
2018-09-04T01:31:11.628Z,22.00
2018-09-04T01:33:40.718Z,27.73
2018-09-04T01:36:10.154Z,23.53
2018-09-04T01:38:39.113Z,23.27
2018-09-04T01:41:08.228Z,25.10
2018-09-04T01:43:37.426Z,22.40
2018-09-04T01:46:06.139Z,23.90
2018-09-04T01:48:34.799Z,21.50
2018-09-04T01:51:03.626Z,22.60
2018-09-04T01:53:32.602Z,22.33
2018-09-04T01:56:01.523Z,21.03
2018-09-04T01:58:30.764Z,22.70
2018-09-04T02:00:59.513Z,18.97
2018-09-04T02:03:28.706Z,15.37
2018-09-04T02:05:57.594Z,20.63
2018-09-04T02:08:26.455Z,16.73
2018-09-04T02:10:55.312Z,19.77
2018-09-04T02:13:24.562Z,16.33
2018-09-04T02:15:53.340Z,21.97
2018-09-04T02:18:22.162Z,19.80
2018-09-04T02:20:51.170Z,20.60
2018-09-04T02:23:20.100Z,20.40
2018-09-04T02:25:49.106Z,23.50
2018-09-04T02:28:18.416Z,18.57
2018-09-04T02:30:47.558Z,18.60
2018-09-04T02:33:16.335Z,18.47
2018-09-04T02:35:45.429Z,19.33
2018-09-04T02:38:14.375Z,24.33
2018-09-04T02:40:43.284Z,19.70
2018-09-04T02:43:12.584Z,18.23
2018-09-04T02:45:41.319Z,23.40
2018-09-04T02:48:10.163Z,18.00
2018-09-04T02:50:39.241Z,24.47
2018-09-04T02:53:07.950Z,22.03
2018-09-04T02:55:36.926Z,20.77
2018-09-04T02:58:07.050Z,24.00
2018-09-04T03:00:36.232Z,22.73
2018-09-04T03:03:05.280Z,28.13
2018-09-04T03:05:34.151Z,27.33
2018-09-04T03:08:03.001Z,26.63
2018-09-04T03:10:31.846Z,36.23
2018-09-04T03:13:01.003Z,22.80
2018-09-04T03:15:29.717Z,28.63
2018-09-04T03:17:58.537Z,25.63
2018-09-04T03:20:27.326Z,22.10
2018-09-04T03:22:56.502Z,27.03
2018-09-04T03:25:25.338Z,29.10
2018-09-04T03:27:54.675Z,30.57
2018-09-04T03:30:23.632Z,27.47
2018-09-04T03:32:52.500Z,31.63
2018-09-04T03:35:21.314Z,24.07
2018-09-04T03:37:50.207Z,29.00
2018-09-04T03:40:19.117Z,26.40
2018-09-04T03:42:48.334Z,29.57
2018-09-04T03:45:17.068Z,26.87
2018-09-04T03:47:45.822Z,28.67
2018-09-04T03:50:14.510Z,30.13
2018-09-04T03:52:43.463Z,32.40
2018-09-04T03:55:12.318Z,29.13
2018-09-04T03:57:41.374Z,30.43
2018-09-04T04:00:10.686Z,30.23
2018-09-04T04:02:39.843Z,29.77
2018-09-04T04:05:08.991Z,34.00
2018-09-04T04:07:38.157Z,29.57
2018-09-04T04:10:06.824Z,26.13
2018-09-04T04:12:35.858Z,25.20
2018-09-04T04:15:04.633Z,29.43
2018-09-04T04:17:33.497Z,30.40
2018-09-04T04:20:02.567Z,33.17
2018-09-04T04:22:31.494Z,26.10
2018-09-04T04:25:00.332Z,32.00
2018-09-04T04:27:29.522Z,28.30
2018-09-04T04:29:58.539Z,26.67
2018-09-04T04:32:27.898Z,26.23
2018-09-04T04:34:56.867Z,21.33
2018-09-04T04:37:25.767Z,22.13
2018-09-04T04:39:54.593Z,19.90
2018-09-04T04:42:24.194Z,20.33
2018-09-04T04:44:52.792Z,19.40
2018-09-04T04:47:26.815Z,21.13
2018-09-04T04:49:55.709Z,21.30
2018-09-04T04:52:24.652Z,20.30
2018-09-04T04:54:54.161Z,23.17
2018-09-04T04:57:23.258Z,28.93
2018-09-04T04:59:52.707Z,21.20
2018-09-04T05:02:21.992Z,22.83
2018-09-04T05:04:50.780Z,21.30
2018-09-04T05:07:19.968Z,22.33
2018-09-04T05:09:49.322Z,22.30
2018-09-04T05:12:18.402Z,22.70
2018-09-04T05:14:47.295Z,20.67
2018-09-04T05:17:16.318Z,22.60
2018-09-04T05:19:45.204Z,24.53
2018-09-04T05:22:14.123Z,22.83
2018-09-04T05:24:43.159Z,22.23
2018-09-04T05:27:12.585Z,27.20
2018-09-04T05:29:41.405Z,18.13
2018-09-04T05:32:15.906Z,21.90
2018-09-04T05:34:44.826Z,22.40
2018-09-04T05:37:13.751Z,18.60
2018-09-04T05:39:42.841Z,20.10
2018-09-04T05:42:16.826Z,21.30
2018-09-04T05:44:46.283Z,17.47
2018-09-04T05:47:15.117Z,18.83
2018-09-04T05:49:43.918Z,24.43
2018-09-04T05:52:12.846Z,22.93
2018-09-04T05:54:42.090Z,22.17
2018-09-04T05:57:10.969Z,23.23
2018-09-04T05:59:40.670Z,24.47
2018-09-04T06:02:09.609Z,26.33
2018-09-04T06:04:38.804Z,26.80
2018-09-04T06:07:07.664Z,22.73
2018-09-04T06:09:36.530Z,29.63
2018-09-04T06:12:05.671Z,22.43
2018-09-04T06:14:34.887Z,38.27
2018-09-04T06:17:04.171Z,33.30
2018-09-04T06:19:33.186Z,38.23
2018-09-04T06:22:02.262Z,37.73
2018-09-04T06:24:31.160Z,35.50
2018-09-04T06:27:00.353Z,32.37
2018-09-04T06:29:29.464Z,36.60
2018-09-04T06:31:58.848Z,32.63
2018-09-04T06:34:27.722Z,33.40
2018-09-04T06:36:57.012Z,35.83
2018-09-04T06:39:26.154Z,31.70
2018-09-04T06:41:55.082Z,30.60
2018-09-04T06:44:24.646Z,35.90
2018-09-04T06:46:53.338Z,27.30
2018-09-04T06:49:22.101Z,28.97
2018-09-04T06:51:51.761Z,25.73
2018-09-04T06:54:20.439Z,29.13
2018-09-04T06:56:49.694Z,25.90
2018-09-04T06:59:18.825Z,30.50
2018-09-04T07:01:47.828Z,30.73
2018-09-04T07:04:17.066Z,29.10
2018-09-04T07:06:46.375Z,26.40
2018-09-04T07:09:15.511Z,20.17
2018-09-04T07:11:45.020Z,24.47
2018-09-04T07:14:14.225Z,31.40
2018-09-04T07:16:43.043Z,30.90
2018-09-04T07:19:16.550Z,42.73
2018-09-04T07:21:45.325Z,34.30
2018-09-04T07:24:14.776Z,36.53
2018-09-04T07:26:44.534Z,30.73
2018-09-04T07:29:13.412Z,34.13
2018-09-04T07:31:42.754Z,36.93
2018-09-04T07:34:11.698Z,36.43
2018-09-04T07:36:40.699Z,30.23
2018-09-04T07:39:11.014Z,29.20
2018-09-04T07:41:40.557Z,34.40
2018-09-04T07:44:09.342Z,31.53
2018-09-04T07:46:38.307Z,33.27
2018-09-04T07:49:07.377Z,37.77
2018-09-04T07:51:36.296Z,26.60
2018-09-04T07:54:05.225Z,28.87
2018-09-04T07:56:34.711Z,26.87
2018-09-04T07:59:03.446Z,24.27
2018-09-04T08:01:32.286Z,42.33
2018-09-04T08:04:01.779Z,25.73
2018-09-04T08:06:31.042Z,28.23
2018-09-04T08:09:00.278Z,22.40
2018-09-04T08:11:29.609Z,26.27
2018-09-04T08:13:58.678Z,25.40
2018-09-04T08:16:27.476Z,31.83
2018-09-04T08:18:56.662Z,25.63
2018-09-04T08:21:26.131Z,26.77
2018-09-04T08:23:54.982Z,27.60
2018-09-04T08:26:24.258Z,30.10
2018-09-04T08:28:53.341Z,28.50
2018-09-04T08:31:22.040Z,30.00
2018-09-04T08:33:51.462Z,26.00
2018-09-04T08:36:20.655Z,29.10
2018-09-04T08:38:50.052Z,34.30
2018-09-04T08:41:19.980Z,32.77
2018-09-04T08:43:49.276Z,28.87
2018-09-04T08:46:18.536Z,26.43
2018-09-04T08:48:47.655Z,30.43
2018-09-04T08:51:16.366Z,26.73
2018-09-04T08:53:45.222Z,28.60
2018-09-04T08:56:14.642Z,26.23
2018-09-04T08:58:43.642Z,22.20
2018-09-04T09:01:12.428Z,22.50
2018-09-04T09:03:41.793Z,26.10
2018-09-04T09:06:10.731Z,24.57
2018-09-04T09:08:39.795Z,27.77
2018-09-04T09:11:09.174Z,22.55
2018-09-04T09:13:38.087Z,23.00
2018-09-04T09:16:07.240Z,29.23
2018-09-04T09:18:36.598Z,25.60
2018-09-04T09:21:05.355Z,23.23
2018-09-04T09:23:34.061Z,22.00
2018-09-04T09:26:03.020Z,15.60
2018-09-04T09:28:32.449Z,19.60
2018-09-04T09:31:01.411Z,23.23
2018-09-04T09:33:30.910Z,19.87
2018-09-04T09:35:59.817Z,20.37
2018-09-04T09:38:28.768Z,21.93
2018-09-04T09:40:58.206Z,22.52
2018-09-04T09:43:27.278Z,26.40
2018-09-04T09:45:56.381Z,20.40
2018-09-04T09:48:29.790Z,20.00
2018-09-04T09:50:58.679Z,19.80
2018-09-04T09:53:27.554Z,18.48
2018-09-04T09:55:56.466Z,19.48
2018-09-04T09:58:25.477Z,21.33
2018-09-04T10:00:58.919Z,19.50
2018-09-04T10:03:33.140Z,19.37
2018-09-04T10:06:02.049Z,19.75
2018-09-04T10:08:31.270Z,16.55
2018-09-04T10:11:00.371Z,15.40
2018-09-04T10:13:29.450Z,19.05
2018-09-04T10:15:58.305Z,13.00
2018-09-04T10:18:27.066Z,14.78
2018-09-04T10:20:56.146Z,13.93
2018-09-04T10:23:25.076Z,14.40
2018-09-04T10:25:54.278Z,15.78
2018-09-04T10:28:23.515Z,14.53
2018-09-04T10:30:52.298Z,17.95
2018-09-04T10:33:21.206Z,10.72
2018-09-04T10:35:50.424Z,13.25
2018-09-04T10:38:19.138Z,14.93
2018-09-04T10:40:48.695Z,15.60
2018-09-04T10:43:18.907Z,11.78
2018-09-04T10:45:52.829Z,11.57
2018-09-04T10:48:24.850Z,15.20
2018-09-04T10:50:53.872Z,15.72
2018-09-04T10:53:22.617Z,10.45
2018-09-04T10:55:51.426Z,7.95
2018-09-04T10:58:20.355Z,13.72
2018-09-04T11:00:49.509Z,8.48
2018-09-04T11:03:18.367Z,13.53
2018-09-04T11:05:47.421Z,11.95
2018-09-04T11:08:16.499Z,12.23
2018-09-04T11:10:45.960Z,8.53
2018-09-04T11:13:14.923Z,9.05
2018-09-04T11:15:44.028Z,6.72
2018-09-04T11:18:13.367Z,9.98
2018-09-04T11:20:42.149Z,10.72
2018-09-04T11:23:10.902Z,7.58
2018-09-04T11:25:40.008Z,7.95
2018-09-04T11:28:08.927Z,10.60
2018-09-04T11:30:37.934Z,8.33
2018-09-04T11:33:07.289Z,10.50
2018-09-04T11:35:36.159Z,8.05
2018-09-04T11:38:05.092Z,6.80
2018-09-04T11:40:34.399Z,9.18
2018-09-04T11:43:03.413Z,10.75
2018-09-04T11:45:32.467Z,11.65
2018-09-04T11:48:01.678Z,7.97
2018-09-04T11:50:30.350Z,9.58
2018-09-04T11:52:59.036Z,12.93
2018-09-04T11:55:28.095Z,6.70
2018-09-04T11:57:56.954Z,7.42
2018-09-04T12:00:43.333Z,7.78
2018-09-04T12:03:13.814Z,6.03
2018-09-04T12:05:42.659Z,8.25
2018-09-04T12:08:12.496Z,7.00
2018-09-04T12:10:41.475Z,9.53
2018-09-04T12:13:10.474Z,6.53
2018-09-04T12:15:40.405Z,9.15
2018-09-04T12:18:10.382Z,11.22
2018-09-04T12:20:42.387Z,6.08
2018-09-04T12:23:12.027Z,8.80
2018-09-04T12:25:41.399Z,6.60
2018-09-04T12:28:10.452Z,8.70
2018-09-04T12:30:39.526Z,6.22
2018-09-04T12:33:09.037Z,6.42
2018-09-04T12:35:38.218Z,7.42
2018-09-04T12:38:10.471Z,7.03
2018-09-04T12:40:39.472Z,8.15
2018-09-04T12:43:08.722Z,11.15
2018-09-04T12:45:43.058Z,6.72
2018-09-04T12:48:13.395Z,6.03
2018-09-04T12:50:42.038Z,8.85
2018-09-04T12:53:10.788Z,7.28
2018-09-04T12:55:39.511Z,6.17
2018-09-04T12:58:08.225Z,7.75
2018-09-04T13:00:37.939Z,6.83
2018-09-04T13:03:06.918Z,7.08
2018-09-04T13:05:36.160Z,6.45
2018-09-04T13:08:05.642Z,10.85
2018-09-04T13:10:34.420Z,7.53
2018-09-04T13:13:03.350Z,5.92
2018-09-04T13:15:32.851Z,8.85
2018-09-04T13:18:01.664Z,6.72
2018-09-04T13:20:30.389Z,6.30
2018-09-04T13:22:59.746Z,10.45
2018-09-04T13:25:28.508Z,6.03
2018-09-04T13:27:57.358Z,5.67
2018-09-04T13:30:26.819Z,8.45
2018-09-04T13:32:55.937Z,10.68
2018-09-04T13:35:25.000Z,7.17
2018-09-04T13:37:54.501Z,7.05
2018-09-04T13:40:23.289Z,5.65
2018-09-04T13:42:52.342Z,5.62
2018-09-04T13:45:21.816Z,8.55
2018-09-04T13:47:52.156Z,7.37
2018-09-04T13:50:20.821Z,8.23
2018-09-04T13:52:49.774Z,7.28
2018-09-04T13:55:18.420Z,6.83
2018-09-04T13:57:47.444Z,9.18
2018-09-04T14:00:17.716Z,6.20
2018-09-04T14:02:46.591Z,6.87
2018-09-04T14:05:15.482Z,7.90
2018-09-04T14:07:44.645Z,7.00
2018-09-04T14:10:13.734Z,6.42
2018-09-04T14:12:42.838Z,11.00
2018-09-04T14:15:12.259Z,5.42
2018-09-04T14:17:41.244Z,7.47
2018-09-04T14:20:09.993Z,5.67
2018-09-04T14:22:39.096Z,5.90
2018-09-04T14:25:07.725Z,5.92
2018-09-04T14:27:36.774Z,8.38
2018-09-04T14:30:18.383Z,6.95
2018-09-04T14:32:35.345Z,7.10
2018-09-04T14:35:04.284Z,7.75
2018-09-04T14:37:33.635Z,7.53
2018-09-04T14:40:02.621Z,7.65
2018-09-04T14:42:31.605Z,7.28
2018-09-04T14:45:01.037Z,7.20
2018-09-04T14:47:30.078Z,6.20
2018-09-04T14:49:58.802Z,7.65
2018-09-04T14:52:27.887Z,32.15
2018-09-04T14:54:56.755Z,5.85
2018-09-04T14:57:25.446Z,7.08
2018-09-04T14:59:54.957Z,6.17
2018-09-04T15:02:24.143Z,6.58
2018-09-04T15:04:53.285Z,6.17
2018-09-04T15:07:22.704Z,10.10
2018-09-04T15:09:51.799Z,6.53
2018-09-04T15:12:20.548Z,10.98
2018-09-04T15:14:49.962Z,8.53
2018-09-04T15:17:19.098Z,4.87
2018-09-04T15:19:47.767Z,6.12
2018-09-04T15:22:16.786Z,9.90
2018-09-04T15:24:45.834Z,5.65
2018-09-04T15:27:14.782Z,5.42
2018-09-04T15:29:43.909Z,5.75
2018-09-04T15:32:13.000Z,6.45
2018-09-04T15:34:41.695Z,5.60
2018-09-04T15:37:10.828Z,5.17
2018-09-04T15:39:40.055Z,8.90
2018-09-04T15:42:09.100Z,6.37
2018-09-04T15:44:38.084Z,5.33
2018-09-04T15:47:06.995Z,8.10
2018-09-04T15:49:40.816Z,6.75
2018-09-04T15:52:09.721Z,6.85
2018-09-04T15:54:38.754Z,4.83
2018-09-04T15:57:07.575Z,6.53
2018-09-04T15:59:36.464Z,8.58
2018-09-04T16:02:05.348Z,6.55
2018-09-04T16:04:34.529Z,7.72
2018-09-04T16:07:03.274Z,4.87
2018-09-04T16:09:32.024Z,7.35
2018-09-04T16:12:00.902Z,13.28
2018-09-04T16:14:29.590Z,6.05
2018-09-04T16:16:58.596Z,5.70
2018-09-04T16:19:27.473Z,9.80
2018-09-04T16:21:56.386Z,8.03
2018-09-04T16:24:25.380Z,6.78
2018-09-04T16:26:54.696Z,9.25
2018-09-04T16:29:23.546Z,9.30
2018-09-04T16:31:52.766Z,6.17
2018-09-04T16:34:21.979Z,7.87
2018-09-04T16:36:50.723Z,10.45
2018-09-04T16:39:19.833Z,6.00
2018-09-04T16:41:49.171Z,11.50
2018-09-04T16:44:18.289Z,9.60
2018-09-04T16:46:47.138Z,10.82
2018-09-04T16:49:16.360Z,11.25
2018-09-04T16:51:45.224Z,14.75
2018-09-04T16:54:14.020Z,19.27
2018-09-04T16:56:42.843Z,10.30
2018-09-04T16:59:11.703Z,12.15
2018-09-04T17:01:40.695Z,17.20
2018-09-04T17:04:09.883Z,18.75
2018-09-04T17:06:38.785Z,11.25
2018-09-04T17:09:08.120Z,14.40
2018-09-04T17:11:37.550Z,18.00
2018-09-04T17:14:06.925Z,20.17
2018-09-04T17:16:36.092Z,17.02
2018-09-04T17:19:05.607Z,13.65
2018-09-04T17:21:34.408Z,17.32
2018-09-04T17:24:03.530Z,11.53
2018-09-04T17:26:32.721Z,10.15
2018-09-04T17:29:01.633Z,13.30
2018-09-04T17:31:30.576Z,14.10
2018-09-04T17:33:59.583Z,19.33
2018-09-04T17:36:28.657Z,14.70
2018-09-04T17:38:57.447Z,15.20
2018-09-04T17:41:26.669Z,21.93
2018-09-04T17:43:55.539Z,23.00
2018-09-04T17:46:24.416Z,19.23
2018-09-04T17:48:53.310Z,14.50
2018-09-04T17:51:22.141Z,12.73
2018-09-04T17:53:50.924Z,16.03
2018-09-04T17:56:20.188Z,13.17
2018-09-04T17:58:49.122Z,16.40
2018-09-04T18:01:18.085Z,18.13
2018-09-04T18:03:47.427Z,16.73
2018-09-04T18:06:16.279Z,21.10
2018-09-04T18:08:45.295Z,19.07
2018-09-04T18:11:14.277Z,18.87
2018-09-04T18:13:42.974Z,20.47
2018-09-04T18:16:11.914Z,19.47
2018-09-04T18:18:40.927Z,15.63
2018-09-04T18:21:09.815Z,19.20
2018-09-04T18:23:38.518Z,12.33
2018-09-04T18:26:07.662Z,14.57
2018-09-04T18:28:36.640Z,14.33
2018-09-04T18:31:05.757Z,19.63
2018-09-04T18:33:35.418Z,10.03
2018-09-04T18:36:04.278Z,12.10
2018-09-04T18:38:33.466Z,18.07
2018-09-04T18:41:02.698Z,19.33
2018-09-04T18:43:31.716Z,20.80
2018-09-04T18:46:00.510Z,9.90
2018-09-04T18:48:29.575Z,11.13
2018-09-04T18:50:58.325Z,9.17
2018-09-04T18:53:27.084Z,16.40
2018-09-04T18:55:56.081Z,8.93
2018-09-04T18:58:24.727Z,9.73
2018-09-04T19:00:53.487Z,26.87
2018-09-04T19:03:22.864Z,10.37
2018-09-04T19:05:51.605Z,10.77
2018-09-04T19:08:20.591Z,10.50
2018-09-04T19:10:49.811Z,8.97
2018-09-04T19:13:18.636Z,11.40
2018-09-04T19:15:47.546Z,10.97
2018-09-04T19:18:16.335Z,8.90
2018-09-04T19:20:45.069Z,7.80
2018-09-04T19:23:13.881Z,7.23
2018-09-04T19:25:43.002Z,7.30
2018-09-04T19:28:11.860Z,8.80
2018-09-04T19:30:40.657Z,13.93
2018-09-04T19:33:09.620Z,11.53
2018-09-04T19:35:38.339Z,10.03
2018-09-04T19:38:07.425Z,9.50
2018-09-04T19:40:36.947Z,14.47
2018-09-04T19:43:05.844Z,13.23
2018-09-04T19:45:34.689Z,9.47
2018-09-04T19:48:03.551Z,14.93
2018-09-04T19:50:32.286Z,15.77
2018-09-04T19:53:01.015Z,13.97
2018-09-04T19:55:30.087Z,13.70
2018-09-04T19:57:58.877Z,14.67
2018-09-04T20:00:28.162Z,13.87
2018-09-04T20:02:57.291Z,13.73
2018-09-04T20:05:26.206Z,15.00
2018-09-04T20:07:55.351Z,18.17
2018-09-04T20:10:24.490Z,16.20
2018-09-04T20:12:53.352Z,23.40
2018-09-04T20:15:22.254Z,11.63
2018-09-04T20:17:51.379Z,19.13
2018-09-04T20:20:20.121Z,15.63
2018-09-04T20:22:49.072Z,15.87
2018-09-04T20:25:17.834Z,11.37
2018-09-04T20:27:46.660Z,8.50
2018-09-04T20:30:15.562Z,10.63
2018-09-04T20:32:44.786Z,6.10
2018-09-04T20:35:14.030Z,6.10
2018-09-04T20:37:42.986Z,5.33
2018-09-04T20:40:12.655Z,4.90
2018-09-04T20:42:41.569Z,5.23
2018-09-04T20:45:10.524Z,8.53
2018-09-04T20:47:39.615Z,3.47
2018-09-04T20:50:08.438Z,5.27
2018-09-04T20:52:37.158Z,4.87
2018-09-04T20:55:06.681Z,4.23
2018-09-04T20:57:40.571Z,3.20
2018-09-04T21:00:22.274Z,6.13
2018-09-04T21:03:02.250Z,4.13
2018-09-04T21:05:42.585Z,6.60
2018-09-04T21:08:24.386Z,4.37
2018-09-04T21:10:54.108Z,3.97
2018-09-04T21:13:54.615Z,3.73
2018-09-04T21:16:23.874Z,3.53
2018-09-04T21:18:52.642Z,4.67
2018-09-04T21:21:21.507Z,3.70
2018-09-04T21:23:51.017Z,3.23
2018-09-04T21:26:19.793Z,2.30
2018-09-04T21:28:48.617Z,5.30
2018-09-04T21:31:18.301Z,5.57
2018-09-04T21:33:47.182Z,4.77
2018-09-04T21:36:16.125Z,2.57
2018-09-04T21:38:45.417Z,4.43
2018-09-04T21:41:14.369Z,2.93
2018-09-04T21:43:43.163Z,3.37
2018-09-04T21:46:12.361Z,3.53
2018-09-04T21:48:41.091Z,3.30
2018-09-04T21:51:09.697Z,2.83
2018-09-04T21:53:39.058Z,2.83
2018-09-04T21:56:07.702Z,3.00
2018-09-04T21:58:36.887Z,3.23
2018-09-04T22:01:06.319Z,7.07
2018-09-04T22:03:35.507Z,3.20
2018-09-04T22:06:04.238Z,5.13
2018-09-04T22:08:33.323Z,3.20
2018-09-04T22:11:02.340Z,4.17
2018-09-04T22:13:31.234Z,3.30
2018-09-04T22:16:00.368Z,4.27
2018-09-04T22:18:29.155Z,2.57
2018-09-04T22:20:57.828Z,5.13
2018-09-04T22:23:26.608Z,4.30
2018-09-04T22:25:55.485Z,4.87
2018-09-04T22:28:24.540Z,3.23
2018-09-04T22:30:53.467Z,2.40
2018-09-04T22:33:22.517Z,3.00
2018-09-04T22:35:51.324Z,5.90
2018-09-04T22:38:20.452Z,3.17
2018-09-04T22:40:49.505Z,3.53
2018-09-04T22:43:18.402Z,2.70
2018-09-04T22:45:47.628Z,3.60
2018-09-04T22:48:16.287Z,3.30
2018-09-04T22:50:50.427Z,2.90
2018-09-04T22:53:19.042Z,3.40
2018-09-04T22:55:48.131Z,2.87
2018-09-04T22:58:17.457Z,4.00
2018-09-04T23:00:46.377Z,5.10
2018-09-04T23:03:15.225Z,4.20
2018-09-04T23:05:44.023Z,3.40
2018-09-04T23:08:12.782Z,4.27
2018-09-04T23:10:41.674Z,4.73
2018-09-04T23:13:11.191Z,3.27
2018-09-04T23:15:42.796Z,5.33
2018-09-04T23:18:12.828Z,2.87
2018-09-04T23:20:41.749Z,3.47
2018-09-04T23:23:10.542Z,6.47
2018-09-04T23:25:39.698Z,5.43
2018-09-04T23:28:08.565Z,3.03
2018-09-04T23:30:37.482Z,4.63
2018-09-04T23:33:06.882Z,3.97
2018-09-04T23:35:35.776Z,5.40
2018-09-04T23:38:04.766Z,3.87
2018-09-04T23:40:34.096Z,5.70
2018-09-04T23:43:03.243Z,3.70
2018-09-04T23:45:31.960Z,3.37
2018-09-04T23:48:00.915Z,3.23
2018-09-04T23:50:30.607Z,3.73
2018-09-04T23:52:59.195Z,3.93
2018-09-04T23:55:28.466Z,3.10
2018-09-04T23:57:57.555Z,4.73
